Time;durP1;ratioP1;P1;durP2;ratioP2;P2;SDS_P1;SDS_P2;PMS_P1;PMS_P2;Temp;Humidity;BMP_temperature;BMP_pressure;BME280_temperature;BME280_humidity;BME280_pressure;Samples;Min_cycle;Max_cycle;Signal;HPM_P1;HPM_P2
2021/04/09 00:01:42;;;;;;;16.52;8.40;;;4.00;61.50;;;;;;5114755;28;20028;-37
2021/04/09 00:04:08;;;;;;;15.93;9.10;;;4.20;61.00;;;;;;5114737;28;20026;-36
2021/04/09 00:06:34;;;;;;;13.02;7.22;;;4.20;60.50;;;;;;5114908;28;20092;-37
2021/04/09 00:09:00;;;;;;;13.45;7.70;;;4.20;61.00;;;;;;5114512;28;20023;-37
2021/04/09 00:11:26;;;;;;;11.52;7.68;;;4.10;60.80;;;;;;5114624;28;20375;-37
2021/04/09 00:13:51;;;;;;;13.10;7.43;;;4.00;61.90;;;;;;5114615;28;20047;-36
2021/04/09 00:16:17;;;;;;;12.77;8.23;;;4.00;61.70;;;;;;5115039;28;20020;-36
2021/04/09 00:18:42;;;;;;;11.10;7.57;;;4.00;61.90;;;;;;5114591;28;20023;-36
2021/04/09 00:21:08;;;;;;;15.45;8.20;;;4.00;61.70;;;;;;5114683;28;20486;-36
2021/04/09 00:23:34;;;;;;;22.15;8.65;;;4.00;61.70;;;;;;5114330;28;20379;-36
2021/04/09 00:26:01;;;;;;;11.93;8.00;;;4.00;61.20;;;;;;5114307;28;20034;-36
2021/04/09 00:28:27;;;;;;;13.32;8.07;;;4.00;61.40;;;;;;5114292;28;20054;-36
2021/04/09 00:30:52;;;;;;;14.77;7.68;;;4.20;60.70;;;;;;5114218;28;20063;-36
2021/04/09 00:33:18;;;;;;;12.50;7.90;;;4.10;61.40;;;;;;5114198;28;20019;-36
2021/04/09 00:35:45;;;;;;;14.93;7.82;;;3.90;61.60;;;;;;5112888;28;20518;-36
2021/04/09 00:38:11;;;;;;;16.83;7.90;;;4.00;61.70;;;;;;5114212;28;20092;-37
2021/04/09 00:40:38;;;;;;;20.70;8.85;;;4.00;62.00;;;;;;5114057;28;20028;-36
2021/04/09 00:43:07;;;;;;;17.73;7.97;;;4.00;61.30;;;;;;5113973;28;20064;-36
2021/04/09 00:45:36;;;;;;;14.02;8.55;;;4.20;60.70;;;;;;5113965;28;20020;-36
2021/04/09 00:48:04;;;;;;;12.23;8.18;;;4.20;60.40;;;;;;5114250;28;20126;-36
2021/04/09 00:50:29;;;;;;;15.93;8.63;;;4.30;60.50;;;;;;5113804;28;20047;-36
2021/04/09 00:52:58;;;;;;;16.65;8.40;;;4.20;60.70;;;;;;5113905;28;20030;-36
2021/04/09 00:55:24;;;;;;;18.88;8.88;;;4.20;60.60;;;;;;5114579;28;20035;-36
2021/04/09 00:57:51;;;;;;;19.42;8.70;;;4.20;60.80;;;;;;5113333;28;20031;-36
2021/04/09 01:00:18;;;;;;;13.50;8.25;;;4.10;61.10;;;;;;5112184;28;20369;-36
2021/04/09 01:02:44;;;;;;;14.48;8.43;;;4.20;60.80;;;;;;5113342;28;20020;-36
2021/04/09 01:05:14;;;;;;;14.77;8.05;;;4.20;61.00;;;;;;5113430;28;20027;-36
2021/04/09 01:07:40;;;;;;;22.17;8.55;;;4.10;61.20;;;;;;5113459;28;20028;-36
2021/04/09 01:10:08;;;;;;;15.52;7.95;;;4.00;61.50;;;;;;5113437;28;20032;-35
2021/04/09 01:12:34;;;;;;;16.95;8.20;;;4.00;61.50;;;;;;5113371;28;20032;-36
2021/04/09 01:15:00;;;;;;;14.45;8.20;;;4.00;61.80;;;;;;5113746;28;20115;-36
2021/04/09 01:17:49;;;;;;;17.85;8.73;;;4.00;61.70;;;;;;5113427;28;20042;-37
2021/04/09 01:20:39;;;;;;;14.23;8.25;;;4.10;61.70;;;;;;5113001;28;20498;-36
2021/04/09 01:23:10;;;;;;;16.17;9.00;;;4.10;61.90;;;;;;5113413;28;20016;-36
2021/04/09 01:26:13;;;;;;;15.15;8.85;;;4.20;61.00;;;;;;5113413;28;20098;-36
2021/04/09 01:28:54;;;;;;;17.80;8.60;;;4.30;60.80;;;;;;5113464;28;20024;-36
2021/04/09 01:31:47;;;;;;;15.85;8.30;;;4.20;61.70;;;;;;5113855;28;20399;-36
2021/04/09 01:34:14;;;;;;;14.27;8.27;;;4.10;62.20;;;;;;5112218;28;20020;-36
2021/04/09 01:36:53;;;;;;;22.33;9.07;;;4.10;61.70;;;;;;5112093;28;20027;-36
2021/04/09 01:39:37;;;;;;;19.50;8.80;;;3.90;62.40;;;;;;5113381;28;20020;-36
2021/04/09 01:42:07;;;;;;;18.63;8.05;;;3.90;62.60;;;;;;5113633;28;20023;-36
2021/04/09 01:44:34;;;;;;;14.32;7.15;;;3.90;62.90;;;;;;5113392;28;20042;-36
2021/04/09 01:47:03;;;;;;;18.20;8.82;;;3.90;63.00;;;;;;5112284;28;20027;-36
2021/04/09 01:49:31;;;;;;;11.95;7.25;;;4.00;62.80;;;;;;5113326;28;20457;-37
2021/04/09 01:52:00;;;;;;;12.40;8.68;;;3.90;62.80;;;;;;5113310;28;20102;-37
2021/04/09 01:54:27;;;;;;;16.17;8.18;;;3.90;62.80;;;;;;5113297;28;20020;-37
2021/04/09 01:56:54;;;;;;;15.18;7.78;;;3.80;63.00;;;;;;5113517;28;20030;-37
2021/04/09 01:59:20;;;;;;;16.25;7.78;;;3.80;63.40;;;;;;5113186;28;20020;-37
2021/04/09 02:01:47;;;;;;;15.00;8.65;;;4.10;62.50;;;;;;5113314;28;20020;-37
2021/04/09 02:04:17;;;;;;;13.13;7.55;;;4.20;62.30;;;;;;5112408;28;20077;-37
2021/04/09 02:06:44;;;;;;;11.73;8.17;;;4.20;61.80;;;;;;5111955;28;20035;-37
2021/04/09 02:09:14;;;;;;;16.65;8.18;;;4.20;62.00;;;;;;5115609;28;20030;-37
2021/04/09 02:11:40;;;;;;;17.02;8.23;;;4.10;62.40;;;;;;5117826;28;20024;-36
2021/04/09 02:14:11;;;;;;;15.48;7.95;;;4.00;63.00;;;;;;5117516;28;20073;-36
2021/04/09 02:16:37;;;;;;;13.65;7.13;;;4.10;62.70;;;;;;5116995;28;20035;-36
2021/04/09 02:19:04;;;;;;;17.48;6.40;;;4.20;62.40;;;;;;5116836;28;20039;-36
2021/04/09 02:21:37;;;;;;;14.68;7.93;;;4.10;62.50;;;;;;5116823;28;20051;-36
2021/04/09 02:24:04;;;;;;;10.57;6.45;;;4.10;62.90;;;;;;5116667;28;20107;-36
2021/04/09 02:26:30;;;;;;;18.05;7.05;;;4.10;62.80;;;;;;5116639;28;20098;-36
2021/04/09 02:28:59;;;;;;;17.42;7.68;;;4.10;62.90;;;;;;5116710;28;20020;-36
2021/04/09 02:31:25;;;;;;;13.85;7.65;;;4.20;62.90;;;;;;5116821;28;20024;-37
2021/04/09 02:33:51;;;;;;;12.90;6.78;;;4.20;62.80;;;;;;5116862;28;20360;-37
2021/04/09 02:36:25;;;;;;;12.82;7.35;;;4.20;62.60;;;;;;5116585;28;20023;-36
2021/04/09 02:38:54;;;;;;;18.48;6.78;;;4.30;63.00;;;;;;5116350;28;20016;-37
2021/04/09 02:41:23;;;;;;;14.20;6.63;;;4.20;62.90;;;;;;5116403;28;20370;-36
2021/04/09 02:43:49;;;;;;;16.50;7.88;;;4.30;63.00;;;;;;5116292;28;20020;-36
2021/04/09 02:46:25;;;;;;;11.55;6.43;;;4.30;62.80;;;;;;5116356;28;20379;-36
2021/04/09 02:48:58;;;;;;;10.50;6.70;;;4.30;62.40;;;;;;5116274;28;20041;-36
2021/04/09 02:51:25;;;;;;;14.15;7.50;;;4.40;62.50;;;;;;5116505;28;20471;-36
2021/04/09 02:53:53;;;;;;;16.15;7.10;;;4.40;61.90;;;;;;5116206;28;20070;-36
2021/04/09 02:56:22;;;;;;;9.50;6.22;;;4.40;62.10;;;;;;5116529;28;20108;-36
2021/04/09 02:58:48;;;;;;;13.27;7.28;;;4.40;62.30;;;;;;5115977;28;20028;-36
2021/04/09 03:01:13;;;;;;;13.88;6.22;;;4.50;62.20;;;;;;5116286;28;20035;-36
2021/04/09 03:03:41;;;;;;;13.05;6.45;;;4.50;62.20;;;;;;5116310;28;20015;-36
2021/04/09 03:06:06;;;;;;;10.43;5.07;;;4.40;62.30;;;;;;5116082;28;20046;-36
2021/04/09 03:08:32;;;;;;;13.18;5.65;;;4.40;62.10;;;;;;5114578;28;20518;-36
2021/04/09 03:11:02;;;;;;;11.95;6.93;;;4.50;62.20;;;;;;5116094;27;20024;-36
2021/04/09 03:13:29;;;;;;;13.02;6.72;;;4.50;62.10;;;;;;5116567;28;20097;-36
2021/04/09 03:16:01;;;;;;;10.00;6.53;;;4.40;62.60;;;;;;5115641;28;20028;-35
2021/04/09 03:18:36;;;;;;;15.82;6.15;;;4.50;62.30;;;;;;5116020;28;20053;-36
2021/04/09 03:21:02;;;;;;;15.55;7.38;;;4.60;62.10;;;;;;5113613;28;20111;-37
2021/04/09 03:23:27;;;;;;;11.85;6.30;;;4.50;62.30;;;;;;5115882;28;20111;-36
2021/04/09 03:25:53;;;;;;;12.27;6.15;;;4.50;62.50;;;;;;5115599;28;20019;-36
2021/04/09 03:28:19;;;;;;;11.15;6.45;;;4.50;62.60;;;;;;5115439;28;20020;-36
2021/04/09 03:30:53;;;;;;;10.60;6.32;;;4.60;62.40;;;;;;5115411;28;20027;-36
2021/04/09 03:33:24;;;;;;;11.43;6.80;;;4.60;62.50;;;;;;5116057;28;20125;-36
2021/04/09 03:35:50;;;;;;;8.65;5.25;;;4.60;62.20;;;;;;5115516;28;20527;-41
2021/04/09 03:38:17;;;;;;;9.13;5.68;;;4.60;62.10;;;;;;5115961;28;20028;-37
2021/04/09 03:40:43;;;;;;;11.20;6.28;;;4.60;62.20;;;;;;5115007;28;20019;-36
2021/04/09 03:43:13;;;;;;;10.40;5.70;;;4.80;61.60;;;;;;5115076;28;20529;-36
2021/04/09 03:45:39;;;;;;;11.40;6.60;;;4.80;61.90;;;;;;5113715;28;20020;-36
2021/04/09 03:48:06;;;;;;;13.05;5.80;;;4.70;61.90;;;;;;5114825;28;20479;-36
2021/04/09 03:50:32;;;;;;;10.90;5.60;;;4.80;61.60;;;;;;5114629;28;20093;-36
2021/04/09 03:52:58;;;;;;;9.95;4.97;;;4.80;61.40;;;;;;5113555;28;20032;-35
2021/04/09 03:55:24;;;;;;;11.10;7.10;;;4.90;61.10;;;;;;5114801;28;20032;-37
2021/04/09 03:57:50;;;;;;;10.25;6.13;;;4.80;61.40;;;;;;5113439;28;20028;-36
2021/04/09 04:00:17;;;;;;;12.95;6.93;;;5.00;61.00;;;;;;5114548;28;20028;-36
2021/04/09 04:02:43;;;;;;;9.63;6.15;;;4.80;61.30;;;;;;5114499;28;20056;-36
2021/04/09 04:05:09;;;;;;;16.02;6.43;;;4.90;61.70;;;;;;5113253;28;20063;-36
2021/04/09 04:07:35;;;;;;;13.13;5.95;;;4.80;61.60;;;;;;5114352;28;20076;-36
2021/04/09 04:10:02;;;;;;;11.48;6.40;;;4.80;61.50;;;;;;5114298;28;20027;-36
2021/04/09 04:12:28;;;;;;;12.57;6.22;;;4.80;61.80;;;;;;5114152;28;20068;-36
2021/04/09 04:14:53;;;;;;;14.73;7.57;;;4.80;61.20;;;;;;5114172;28;20102;-36
2021/04/09 04:17:19;;;;;;;13.32;6.85;;;5.00;61.00;;;;;;5114204;28;20031;-36
2021/04/09 04:19:45;;;;;;;12.85;6.15;;;5.10;60.60;;;;;;5114112;28;20426;-43
2021/04/09 04:22:10;;;;;;;14.40;6.55;;;5.10;60.50;;;;;;5114066;28;20016;-37
2021/04/09 04:24:36;;;;;;;12.77;6.38;;;5.10;60.60;;;;;;5114499;28;20034;-37
2021/04/09 04:27:02;;;;;;;10.93;5.07;;;5.30;59.90;;;;;;5114061;28;20034;-37
2021/04/09 04:29:27;;;;;;;11.30;6.05;;;5.30;59.90;;;;;;5114419;28;20026;-36
2021/04/09 04:31:53;;;;;;;13.05;6.65;;;5.30;59.70;;;;;;5113186;28;20031;-36
2021/04/09 04:34:19;;;;;;;14.13;6.35;;;5.30;60.20;;;;;;5114224;28;20024;-36
2021/04/09 04:36:45;;;;;;;16.33;8.00;;;5.30;60.10;;;;;;5113803;28;20402;-36
2021/04/09 04:39:11;;;;;;;15.77;6.50;;;5.20;60.70;;;;;;5113958;28;20031;-36
2021/04/09 04:41:36;;;;;;;12.98;6.47;;;5.30;60.40;;;;;;5114129;28;20076;-36
2021/04/09 04:44:02;;;;;;;15.45;7.53;;;5.20;60.70;;;;;;5114095;28;20023;-36
2021/04/09 04:46:28;;;;;;;8.98;6.03;;;5.10;60.90;;;;;;5113786;28;20376;-36
2021/04/09 04:48:53;;;;;;;14.25;7.25;;;5.10;60.90;;;;;;5113316;28;20028;-36
2021/04/09 04:51:19;;;;;;;11.70;6.40;;;5.10;60.80;;;;;;5113970;28;20038;-36
2021/04/09 04:53:45;;;;;;;8.60;6.43;;;5.00;61.30;;;;;;5113622;28;20042;-37
2021/04/09 04:56:10;;;;;;;17.65;7.15;;;5.00;61.50;;;;;;5114007;28;20332;-37
2021/04/09 04:58:36;;;;;;;12.38;6.95;;;5.00;61.40;;;;;;5113722;28;20020;-37
2021/04/09 05:01:02;;;;;;;9.85;6.85;;;5.10;61.20;;;;;;5113426;28;20127;-37
2021/04/09 05:03:28;;;;;;;8.85;6.88;;;5.10;61.40;;;;;;5113393;28;20012;-36
2021/04/09 05:05:53;;;;;;;12.80;6.90;;;5.10;61.20;;;;;;5111822;28;20031;-36
2021/04/09 05:08:19;;;;;;;17.58;7.85;;;5.10;61.40;;;;;;5113443;28;20030;-38
2021/04/09 05:10:45;;;;;;;14.45;6.55;;;5.10;61.10;;;;;;5113424;28;20115;-35
2021/04/09 05:13:10;;;;;;;13.80;8.13;;;5.30;60.50;;;;;;5113437;28;20444;-35
2021/04/09 05:15:36;;;;;;;20.38;7.40;;;5.30;60.40;;;;;;5113918;28;20028;-36
2021/04/09 05:18:01;;;;;;;13.43;6.13;;;5.30;60.30;;;;;;5113384;28;20032;-36
2021/04/09 05:20:27;;;;;;;14.15;6.70;;;5.30;60.60;;;;;;5113312;28;20072;-38
2021/04/09 05:22:53;;;;;;;11.00;6.30;;;5.20;60.90;;;;;;5113693;28;20027;-36
2021/04/09 05:25:18;;;;;;;20.25;8.10;;;5.30;60.80;;;;;;5114603;28;20355;-36
2021/04/09 05:27:44;;;;;;;23.58;10.82;;;5.30;60.80;;;;;;5114311;28;20320;-36
2021/04/09 05:30:10;;;;;;;6.57;4.10;;;5.30;60.70;;;;;;5113406;28;20055;-35
2021/04/09 05:32:36;;;;;;;15.45;8.07;;;5.30;60.30;;;;;;5113396;28;20034;-36
2021/04/09 05:35:02;;;;;;;12.82;6.93;;;5.40;60.30;;;;;;5113143;28;20099;-36
2021/04/09 05:37:27;;;;;;;16.13;6.85;;;5.40;60.20;;;;;;5113792;28;20020;-35
2021/04/09 05:39:53;;;;;;;12.75;6.35;;;5.40;60.40;;;;;;5113114;28;20024;-36
2021/04/09 05:42:19;;;;;;;14.63;6.80;;;5.50;60.00;;;;;;5112789;28;20020;-36
2021/04/09 05:44:44;;;;;;;14.68;7.00;;;5.50;60.30;;;;;;5116633;28;20417;-37
2021/04/09 05:47:11;;;;;;;18.40;5.80;;;5.70;59.70;;;;;;5117312;28;20047;-36
2021/04/09 05:49:37;;;;;;;11.35;6.55;;;5.70;59.50;;;;;;5117159;28;20052;-36
2021/04/09 05:52:05;;;;;;;13.40;8.02;;;5.70;59.60;;;;;;5117484;27;20077;-37
2021/04/09 05:54:31;;;;;;;11.73;7.65;;;5.70;59.30;;;;;;5117441;28;20035;-36
2021/04/09 05:56:58;;;;;;;13.95;6.50;;;5.80;59.10;;;;;;5117018;28;20028;-37
2021/04/09 05:59:24;;;;;;;10.82;5.78;;;5.80;59.80;;;;;;5116904;28;20020;-36
2021/04/09 06:01:49;;;;;;;11.68;7.13;;;5.90;59.10;;;;;;5116746;27;20106;-37
2021/04/09 06:04:15;;;;;;;21.08;8.30;;;5.90;58.70;;;;;;5116973;28;20042;-36
2021/04/09 06:06:40;;;;;;;12.43;5.57;;;5.90;58.90;;;;;;5117852;28;20016;-37
2021/04/09 06:09:06;;;;;;;13.32;6.55;;;6.00;58.50;;;;;;5116821;28;20019;-36
2021/04/09 06:11:32;;;;;;;12.10;7.32;;;6.10;58.40;;;;;;5116793;28;20470;-37
2021/04/09 06:13:58;;;;;;;12.50;6.25;;;6.10;58.00;;;;;;5116596;28;20072;-36
2021/04/09 06:16:24;;;;;;;16.73;6.32;;;6.30;57.90;;;;;;5116564;28;20020;-36
2021/04/09 06:18:49;;;;;;;11.90;6.53;;;6.30;58.00;;;;;;5116571;28;20054;-36
2021/04/09 06:21:15;;;;;;;12.85;6.55;;;6.30;57.80;;;;;;5116384;28;20032;-37
2021/04/09 06:23:41;;;;;;;10.55;5.43;;;6.30;58.10;;;;;;5117680;28;20020;-36
2021/04/09 06:26:06;;;;;;;15.23;8.23;;;6.40;57.30;;;;;;5116754;28;20026;-46
2021/04/09 06:28:33;;;;;;;10.32;6.47;;;6.40;57.30;;;;;;5116389;28;20019;-37
2021/04/09 06:30:59;;;;;;;17.58;5.35;;;6.50;56.60;;;;;;5116790;28;20028;-36
2021/04/09 06:33:25;;;;;;;15.02;6.95;;;6.60;56.70;;;;;;5116191;27;20035;-36
2021/04/09 06:35:50;;;;;;;15.73;8.05;;;6.60;56.80;;;;;;5116585;28;20498;-37
2021/04/09 06:38:16;;;;;;;9.32;6.15;;;6.70;56.70;;;;;;5117241;28;20023;-36
2021/04/09 06:40:42;;;;;;;14.77;6.88;;;6.70;56.40;;;;;;5116500;28;20459;-37
2021/04/09 06:43:08;;;;;;;10.25;5.25;;;6.80;55.50;;;;;;5115494;28;20039;-37
2021/04/09 06:45:34;;;;;;;14.15;6.18;;;6.90;55.70;;;;;;5116147;28;20412;-36
2021/04/09 06:47:59;;;;;;;8.48;5.43;;;7.00;55.40;;;;;;5114721;28;20382;-36
2021/04/09 06:50:25;;;;;;;9.90;6.05;;;7.00;55.30;;;;;;5115628;28;20051;-36
2021/04/09 06:52:54;;;;;;;12.02;6.20;;;7.00;55.50;;;;;;5115896;28;20475;-36
2021/04/09 06:55:23;;;;;;;10.82;7.13;;;7.00;55.70;;;;;;5114838;28;20421;-37
2021/04/09 06:57:50;;;;;;;8.93;5.63;;;7.00;55.70;;;;;;5115560;28;20424;-38
2021/04/09 07:00:16;;;;;;;11.40;6.57;;;7.00;56.00;;;;;;5115913;28;20446;-36
2021/04/09 07:02:43;;;;;;;17.75;8.25;;;7.00;55.70;;;;;;5115807;28;20027;-36
2021/04/09 07:05:11;;;;;;;20.02;9.18;;;7.20;55.70;;;;;;5115438;28;20031;-36
2021/04/09 07:07:37;;;;;;;17.10;7.35;;;7.30;55.20;;;;;;5115285;28;20031;-36
2021/04/09 07:10:03;;;;;;;13.55;7.95;;;7.40;54.60;;;;;;5115292;28;20032;-37
2021/04/09 07:12:30;;;;;;;15.32;7.80;;;7.60;54.60;;;;;;5113961;28;20023;-36
2021/04/09 07:15:04;;;;;;;10.75;6.68;;;7.60;54.40;;;;;;5115176;27;20435;-36
2021/04/09 07:17:44;;;;;;;13.68;7.50;;;7.60;54.20;;;;;;5115251;28;20503;-36
2021/04/09 07:20:18;;;;;;;12.82;6.60;;;7.70;54.20;;;;;;5115072;28;20126;-36
2021/04/09 07:22:48;;;;;;;12.18;6.15;;;7.80;53.50;;;;;;5115322;27;20016;-36
2021/04/09 07:25:16;;;;;;;13.52;7.10;;;7.90;53.30;;;;;;5114908;28;20391;-36
2021/04/09 07:27:44;;;;;;;14.65;6.90;;;7.90;53.40;;;;;;5113382;28;20107;-37
2021/04/09 07:30:15;;;;;;;11.30;5.93;;;8.00;53.00;;;;;;5114437;28;20019;-37
2021/04/09 07:32:42;;;;;;;10.25;5.80;;;8.00;52.80;;;;;;5114972;28;20027;-37
2021/04/09 07:35:13;;;;;;;8.23;5.05;;;8.00;53.00;;;;;;5113319;28;20118;-37
2021/04/09 07:37:53;;;;;;;7.78;5.53;;;8.00;52.90;;;;;;5114810;28;20019;-37
2021/04/09 07:40:28;;;;;;;13.93;6.55;;;8.10;52.60;;;;;;5114290;27;20061;-37
2021/04/09 07:42:55;;;;;;;12.40;6.60;;;8.20;52.80;;;;;;5114025;28;20020;-38
2021/04/09 07:45:22;;;;;;;18.80;6.68;;;8.30;52.80;;;;;;5114455;28;20476;-38
2021/04/09 07:48:05;;;;;;;12.13;7.25;;;8.40;52.00;;;;;;5113829;28;20023;-37
2021/04/09 07:50:35;;;;;;;17.77;6.78;;;8.50;52.00;;;;;;5113912;28;20462;-36
2021/04/09 07:53:01;;;;;;;15.90;7.25;;;8.50;51.90;;;;;;5114754;28;20046;-37
2021/04/09 07:55:30;;;;;;;10.43;6.00;;;8.60;52.00;;;;;;5114724;28;20031;-36
2021/04/09 07:58:11;;;;;;;10.63;6.75;;;8.60;52.30;;;;;;5114511;28;20020;-36
2021/04/09 08:00:37;;;;;;;12.02;5.75;;;8.80;51.40;;;;;;5113884;28;20030;-36
2021/04/09 08:03:02;;;;;;;14.25;6.90;;;8.80;52.10;;;;;;5113962;28;20027;-42
2021/04/09 08:05:28;;;;;;;13.77;6.68;;;8.80;51.70;;;;;;5114017;28;20486;-38
2021/04/09 08:07:54;;;;;;;13.68;5.50;;;9.00;51.30;;;;;;5113869;28;20324;-38
2021/04/09 08:10:32;;;;;;;12.75;7.00;;;8.80;51.70;;;;;;5114174;28;20320;-38
2021/04/09 08:13:00;;;;;;;13.25;6.95;;;9.30;51.30;;;;;;5114496;28;20063;-38
2021/04/09 08:15:32;;;;;;;12.18;6.45;;;9.40;50.60;;;;;;5114184;28;20085;-37
2021/04/09 08:18:05;;;;;;;10.70;5.28;;;9.80;49.70;;;;;;5113262;28;20035;-37
2021/04/09 08:20:49;;;;;;;11.77;6.25;;;9.90;48.70;;;;;;5113702;27;20024;-37
2021/04/09 08:23:15;;;;;;;12.70;6.53;;;9.80;49.80;;;;;;5112345;28;20471;-37
2021/04/09 08:25:43;;;;;;;12.07;6.70;;;9.90;49.20;;;;;;5113259;28;20084;-38
2021/04/09 08:28:11;;;;;;;17.13;6.05;;;10.30;48.50;;;;;;5111946;28;20020;-37
2021/04/09 08:30:38;;;;;;;10.45;5.55;;;10.10;48.50;;;;;;5112322;28;20026;-36
2021/04/09 08:33:05;;;;;;;11.20;6.18;;;10.10;48.50;;;;;;5113111;28;20020;-36
2021/04/09 08:35:31;;;;;;;15.88;5.97;;;10.30;48.30;;;;;;5113390;28;20492;-37
2021/04/09 08:38:06;;;;;;;13.80;6.85;;;10.90;46.70;;;;;;5113526;28;20020;-37
2021/04/09 08:40:33;;;;;;;8.93;6.03;;;10.60;47.20;;;;;;5113888;28;20118;-37
2021/04/09 08:43:00;;;;;;;12.52;5.47;;;10.80;46.90;;;;;;5111787;28;20542;-37
2021/04/09 08:45:26;;;;;;;9.10;6.20;;;10.70;46.90;;;;;;5111370;28;20050;-36
2021/04/09 08:47:56;;;;;;;7.90;5.47;;;10.50;47.50;;;;;;5113067;28;20039;-37
2021/04/09 08:50:22;;;;;;;14.77;6.25;;;11.10;45.90;;;;;;5111334;28;20564;-37
2021/04/09 08:52:48;;;;;;;12.07;6.32;;;10.80;46.50;;;;;;5113055;28;20364;-37
2021/04/09 08:55:15;;;;;;;12.57;7.30;;;11.30;44.90;;;;;;5113236;28;20109;-37
2021/04/09 08:57:45;;;;;;;17.33;6.97;;;11.10;46.10;;;;;;5112218;28;20024;-38
2021/04/09 09:00:31;;;;;;;10.75;5.53;;;11.10;45.80;;;;;;5112737;28;20032;-37
2021/04/09 09:02:57;;;;;;;9.27;5.75;;;11.40;44.30;;;;;;5112071;28;20111;-37
2021/04/09 09:05:26;;;;;;;10.18;5.97;;;11.20;45.20;;;;;;5113241;28;20024;-37
2021/04/09 09:08:03;;;;;;;8.75;5.53;;;11.70;44.20;;;;;;5113258;28;20324;-37
2021/04/09 09:10:28;;;;;;;10.18;5.75;;;11.70;43.80;;;;;;5112897;28;20061;-37
2021/04/09 09:13:08;;;;;;;14.77;5.20;;;11.50;44.80;;;;;;5113186;28;20028;-37
2021/04/09 09:15:45;;;;;;;10.60;5.03;;;11.80;44.10;;;;;;5113299;28;20027;-37
2021/04/09 09:18:26;;;;;;;15.38;5.15;;;12.40;42.50;;;;;;5114638;28;20076;-38
2021/04/09 09:21:09;;;;;;;8.65;5.50;;;12.20;43.60;;;;;;5120001;27;20031;-37
2021/04/09 09:23:53;;;;;;;9.70;5.15;;;12.60;41.80;;;;;;5119794;27;20035;-37
2021/04/09 09:26:39;;;;;;;11.90;5.68;;;12.30;42.20;;;;;;5120179;27;20092;-36
2021/04/09 09:29:22;;;;;;;14.15;5.40;;;11.90;43.20;;;;;;5119713;27;20418;-38
2021/04/09 09:31:59;;;;;;;15.55;5.35;;;12.50;42.20;;;;;;5119954;27;20467;-37
2021/04/09 09:34:24;;;;;;;9.18;5.30;;;13.30;41.00;;;;;;5119172;27;20024;-38
2021/04/09 09:37:27;;;;;;;10.07;4.40;;;13.00;41.10;;;;;;5119377;27;20034;-37
2021/04/09 09:39:55;;;;;;;9.75;5.30;;;12.50;42.50;;;;;;5119643;27;20036;-38
2021/04/09 09:42:21;;;;;;;9.98;5.00;;;11.80;44.90;;;;;;5117467;28;20157;-39
2021/04/09 09:45:00;;;;;;;12.15;5.75;;;11.60;45.50;;;;;;5121407;27;20068;-38
2021/04/09 09:47:28;;;;;;;21.65;6.88;;;12.60;43.60;;;;;;5119064;27;20043;-37
2021/04/09 09:50:10;;;;;;;11.52;5.97;;;12.70;43.30;;;;;;5118422;27;20105;-37
2021/04/09 09:52:55;;;;;;;9.27;5.05;;;12.50;43.80;;;;;;5119034;27;20031;-37
2021/04/09 09:55:25;;;;;;;9.80;5.30;;;12.70;43.40;;;;;;5119238;27;20523;-37
2021/04/09 09:57:52;;;;;;;12.23;5.93;;;13.20;42.50;;;;;;5117374;28;20023;-37
2021/04/09 10:00:28;;;;;;;11.57;5.88;;;12.80;44.00;;;;;;5118859;27;20023;-37
2021/04/09 10:03:12;;;;;;;10.10;4.82;;;12.50;44.90;;;;;;5119173;28;20024;-38
2021/04/09 10:05:46;;;;;;;8.38;6.05;;;12.50;45.10;;;;;;5117925;28;20066;-38
2021/04/09 10:08:12;;;;;;;10.43;5.13;;;12.70;44.30;;;;;;5119492;27;20023;-37
2021/04/09 10:11:01;;;;;;;5.43;4.10;;;13.20;43.00;;;;;;5119263;27;20023;-38
2021/04/09 10:13:33;;;;;;;8.23;5.97;;;12.50;44.50;;;;;;5119428;27;20463;-39
2021/04/09 10:16:06;;;;;;;9.73;5.63;;;12.50;44.90;;;;;;5119718;27;20028;-40
2021/04/09 10:18:32;;;;;;;10.30;5.13;;;12.50;44.30;;;;;;5118690;27;20424;-37
2021/04/09 10:21:15;;;;;;;6.65;4.28;;;13.40;42.90;;;;;;5119371;27;20178;-38
2021/04/09 10:23:43;;;;;;;11.40;5.13;;;13.00;43.70;;;;;;5117476;28;20031;-38
2021/04/09 10:26:10;;;;;;;9.98;5.60;;;12.60;45.00;;;;;;5119639;27;20020;-38
2021/04/09 10:28:36;;;;;;;9.43;4.55;;;11.90;47.00;;;;;;5119911;27;20508;-37
2021/04/09 10:31:15;;;;;;;10.23;5.25;;;12.30;46.00;;;;;;5116691;27;20058;-37
2021/04/09 10:33:43;;;;;;;8.48;5.60;;;12.40;46.20;;;;;;5116427;28;20429;-39
2021/04/09 10:36:21;;;;;;;15.35;6.65;;;12.00;46.90;;;;;;5116098;28;20031;-38
2021/04/09 10:38:51;;;;;;;8.77;4.90;;;12.50;45.80;;;;;;5116583;28;20371;-38
2021/04/09 10:41:24;;;;;;;10.50;4.72;;;12.90;44.70;;;;;;5116309;28;20045;-37
2021/04/09 10:44:01;;;;;;;15.63;5.10;;;13.00;44.30;;;;;;5116179;28;20464;-37
2021/04/09 10:46:30;;;;;;;7.22;4.78;;;13.80;43.00;;;;;;5116412;28;20103;-36
2021/04/09 10:49:00;;;;;;;7.03;3.75;;;14.60;40.50;;;;;;5115491;28;20084;-38
2021/04/09 10:51:31;;;;;;;10.60;4.97;;;14.40;40.90;;;;;;5116537;28;20095;-38
2021/04/09 10:53:57;;;;;;;8.98;5.13;;;14.40;41.20;;;;;;5116270;28;20472;-38
2021/04/09 10:56:23;;;;;;;9.23;5.20;;;13.60;42.60;;;;;;5116425;28;20153;-37
2021/04/09 10:58:49;;;;;;;7.57;4.28;;;13.80;42.40;;;;;;5116049;27;20474;-41
2021/04/09 11:01:16;;;;;;;10.23;5.82;;;13.70;43.30;;;;;;5114971;28;20417;-38
2021/04/09 11:03:42;;;;;;;10.88;7.18;;;13.50;43.50;;;;;;5116473;28;20024;-37
2021/04/09 11:06:09;;;;;;;12.07;6.18;;;13.40;43.60;;;;;;5116009;28;20023;-38
2021/04/09 11:08:40;;;;;;;13.30;5.95;;;12.90;44.10;;;;;;5115678;28;20039;-38
2021/04/09 11:11:13;;;;;;;11.43;6.43;;;13.00;44.70;;;;;;5116171;28;20031;-38
2021/04/09 11:13:42;;;;;;;8.60;5.22;;;12.90;44.70;;;;;;5115954;28;20028;-38
2021/04/09 11:16:09;;;;;;;8.45;5.20;;;13.10;44.60;;;;;;5115940;28;20522;-37
2021/04/09 11:18:54;;;;;;;7.90;5.43;;;12.90;44.60;;;;;;5114221;28;20023;-37
2021/04/09 11:21:42;;;;;;;11.77;5.15;;;12.80;45.10;;;;;;5115488;28;20034;-38
2021/04/09 11:24:10;;;;;;;11.63;4.47;;;12.50;45.60;;;;;;5115660;28;20476;-36
2021/04/09 11:26:36;;;;;;;10.30;5.78;;;12.80;44.90;;;;;;5114842;28;20151;-36
2021/04/09 11:29:02;;;;;;;8.02;5.05;;;13.50;43.30;;;;;;5115415;28;20182;-37
2021/04/09 11:31:28;;;;;;;10.43;5.10;;;12.40;45.70;;;;;;5115399;27;20144;-37
2021/04/09 11:34:09;;;;;;;8.20;5.25;;;12.70;46.00;;;;;;5114969;28;20492;-37
2021/04/09 11:36:48;;;;;;;14.27;7.07;;;12.70;45.90;;;;;;5115924;28;20020;-37
2021/04/09 11:39:17;;;;;;;8.77;4.88;;;12.50;45.70;;;;;;5115306;28;20027;-37
2021/04/09 11:41:45;;;;;;;10.95;5.55;;;12.30;45.90;;;;;;5114264;28;20020;-37
2021/04/09 11:44:31;;;;;;;8.70;5.07;;;12.10;46.50;;;;;;5113601;28;20030;-38
2021/04/09 11:47:17;;;;;;;9.23;4.90;;;12.30;46.70;;;;;;5114638;28;20148;-38
2021/04/09 11:49:43;;;;;;;9.82;5.70;;;12.30;46.70;;;;;;5114542;28;20176;-39
2021/04/09 11:52:09;;;;;;;8.07;4.63;;;12.10;46.80;;;;;;5114945;28;20092;-39
2021/04/09 11:54:40;;;;;;;9.73;5.10;;;12.10;47.30;;;;;;5114892;28;20051;-39
2021/04/09 11:57:19;;;;;;;;;;;12.10;47.40;;;;;;5114922;28;20062;-37
2021/04/09 11:59:48;;;;;;;9.75;5.15;;;12.10;46.70;;;;;;5114650;28;19951;-38
2021/04/09 12:02:23;;;;;;;10.48;5.60;;;12.10;46.70;;;;;;5114769;28;20028;-37
2021/04/09 12:04:50;;;;;;;9.05;5.22;;;12.40;46.60;;;;;;5114660;28;20379;-37
2021/04/09 12:07:26;;;;;;;9.18;4.88;;;12.20;46.70;;;;;;5114139;28;20011;-37
2021/04/09 12:09:56;;;;;;;9.45;5.57;;;12.40;46.70;;;;;;5114844;28;20019;-37
2021/04/09 12:12:24;;;;;;;7.30;5.47;;;12.30;46.90;;;;;;5114580;28;20153;-37
2021/04/09 12:14:54;;;;;;;12.65;6.72;;;12.40;47.20;;;;;;5114251;28;20034;-37
2021/04/09 12:17:22;;;;;;;11.70;7.70;;;12.40;45.90;;;;;;5114097;28;20486;-37
2021/04/09 12:19:49;;;;;;;11.52;5.88;;;12.30;46.30;;;;;;5114606;28;20092;-37
2021/04/09 12:22:16;;;;;;;9.60;5.95;;;12.00;47.30;;;;;;5114759;28;20023;-38
2021/04/09 12:24:43;;;;;;;11.18;5.30;;;11.90;47.60;;;;;;5114089;28;20020;-38
2021/04/09 12:27:09;;;;;;;12.32;7.07;;;12.20;46.80;;;;;;5113975;28;20498;-37
2021/04/09 12:29:35;;;;;;;12.32;6.70;;;12.70;45.60;;;;;;5114151;28;20023;-38
2021/04/09 12:32:01;;;;;;;8.65;5.90;;;12.60;46.10;;;;;;5114247;28;20024;-37
2021/04/09 12:34:27;;;;;;;14.48;6.18;;;12.50;46.90;;;;;;5114183;28;20047;-38
2021/04/09 12:36:53;;;;;;;19.13;7.68;;;12.30;47.70;;;;;;5114253;28;20032;-38
2021/04/09 12:39:21;;;;;;;11.73;6.55;;;12.40;47.30;;;;;;5114390;28;20529;-41
2021/04/09 12:41:47;;;;;;;11.07;5.35;;;12.40;46.70;;;;;;5113069;28;20033;-39
2021/04/09 12:44:19;;;;;;;11.93;6.45;;;12.80;45.60;;;;;;5112491;28;20081;-38
2021/04/09 12:46:47;;;;;;;9.48;5.57;;;12.90;45.70;;;;;;5112366;28;20023;-37
2021/04/09 12:49:15;;;;;;;11.02;6.18;;;12.80;45.80;;;;;;5113703;28;20044;-40
2021/04/09 12:51:41;;;;;;;10.25;5.72;;;13.00;46.00;;;;;;5115984;28;20028;-38
2021/04/09 12:54:06;;;;;;;17.55;8.43;;;13.20;45.00;;;;;;5114036;28;20035;-39
2021/04/09 12:56:32;;;;;;;10.77;5.97;;;13.50;44.60;;;;;;5114440;28;20031;-38